Date,TemperatureHighF,TemperatureAvgF,TemperatureLowF,DewpointHighF,DewpointAvgF,DewpointLowF,HumidityHigh,HumidityAvg,HumidityLow,PressureMaxIn,PressureMinIn,WindSpeedMaxMPH,WindSpeedAvgMPH,GustSpeedMaxMPH,PrecipitationSumIn
2012-4-11,67.0,60.0,54.0,28.0,27.2,26.0,36,29,23,0.00,40.00,16,5,24,0.00
2012-4-12,68.0,54.9,40.0,34.0,27.5,21.0,60,36,25,0.00,40.00,16,5,24,0.00
2012-4-13,75.0,58.0,40.0,44.0,35.2,32.0,86,48,23,0.00,40.00,11,2,14,0.00
2012-4-14,77.0,63.0,46.0,55.0,39.9,33.0,89,48,23,0.00,40.00,11,4,20,0.00
2012-4-15,79.0,67.0,60.0,61.0,55.8,-99.9,94,72,44,0.00,40.00,13,7,19,0.00
2012-4-16,86.0,71.3,57.0,60.0,55.2,51.0,92,60,33,0.00,40.00,11,5,18,0.00
2012-4-17,87.0,74.5,60.0,62.0,56.5,51.0,93,58,33,0.00,40.00,10,4,16,0.00
2012-4-18,63.0,60.4,57.0,61.0,58.6,55.0,94,94,93,0.00,40.00,10,5,13,0.00
2012-4-19,68.0,59.8,56.0,59.0,54.0,-99.9,94,85,72,0.00,40.00,9,-10,14,0.00
2012-4-20,73.0,64.6,59.0,61.0,58.4,56.0,92,82,62,0.00,40.00,5,2,11,0.00
2012-4-21,83.0,69.0,62.0,66.0,56.8,-99.9,95,71,31,0.00,40.00,8,-5,14,0.00
2012-4-22,70.0,63.4,56.0,61.0,53.7,-99.9,94,76,33,0.00,40.00,15,8,24,0.00
2012-4-23,60.0,52.8,41.0,34.0,28.3,21.0,71,41,25,0.00,40.00,20,9,32,0.00
2012-4-24,68.0,55.0,40.0,35.0,29.0,21.0,61,39,24,0.00,40.00,18,8,33,0.00
2012-4-25,84.0,64.6,46.0,49.0,42.9,32.0,76,49,29,0.00,40.00,18,6,23,0.00
2012-4-26,87.0,75.8,64.0,55.0,48.9,45.0,62,40,27,0.00,40.00,20,11,32,0.00
2012-4-27,89.0,77.3,66.0,63.0,57.2,49.0,89,52,34,0.00,40.00,14,8,21,0.00
2012-4-28,91.0,76.5,63.0,68.0,60.3,51.0,94,63,27,0.00,40.00,14,4,19,0.00
2012-4-29,92.0,74.3,63.0,65.0,57.2,-99.9,94,64,25,0.00,40.00,11,3,15,0.00
2012-4-30,90.0,75.1,64.0,66.0,59.3,53.0,92,62,31,0.00,40.00,14,7,24,0.00
2012-5-1,90.0,75.9,66.0,65.0,60.5,51.0,94,64,31,0.00,40.00,12,6,19,0.00
2012-5-2,90.0,74.7,67.0,66.0,61.3,48.0,93,68,25,0.00,40.00,13,6,21,0.00
2012-5-3,89.0,76.6,68.0,67.0,60.6,51.0,92,62,29,0.00,40.00,11,6,19,0.00
2012-5-4,87.0,77.2,69.0,65.0,61.7,58.0,84,61,41,0.00,40.00,11,5,17,0.00
2012-5-5,96.0,79.8,66.0,69.0,58.2,-99.9,94,55,27,0.00,40.00,14,-10,25,0.00
2012-5-6,86.0,76.5,69.0,62.0,56.6,-99.9,72,53,41,0.00,40.00,12,-1,19,0.00
2012-5-7,83.0,73.3,66.0,66.0,61.6,54.0,91,70,39,0.00,40.00,15,5,25,0.00
2012-5-8,82.0,71.6,67.0,70.0,61.6,-99.9,95,77,54,0.00,40.00,11,-28,19,0.00
2012-5-9,75.0,69.4,63.0,71.0,66.8,61.0,94,92,80,0.00,40.00,8,4,15,0.00
2012-5-10,79.0,65.5,55.0,61.0,48.3,36.0,94,61,23,0.00,40.00,11,5,16,0.00
2012-5-11,81.0,68.0,56.0,51.0,44.6,40.0,72,46,29,0.00,40.00,15,6,24,0.00
2012-5-12,79.0,72.8,67.0,60.0,48.9,-99.9,75,46,35,0.00,40.00,12,-8,16,0.00
2012-5-13,70.0,65.5,62.0,66.0,60.6,-99.9,94,86,59,0.00,40.00,8,4,14,0.00
2012-5-14,84.0,71.8,67.0,70.0,65.6,61.0,94,83,48,0.00,40.00,14,7,20,0.00
2012-5-15,88.0,74.0,64.0,70.0,63.6,56.0,94,74,37,0.00,40.00,10,3,15,0.00
2012-5-16,85.0,74.7,65.0,68.0,62.6,57.0,94,69,41,0.00,40.00,9,3,11,0.00
2012-5-17,81.0,70.3,63.0,68.0,61.1,56.0,93,75,45,0.00,40.00,12,4,21,0.00
2012-5-18,76.0,67.8,62.0,63.0,58.5,53.0,91,74,45,0.00,40.00,15,6,26,0.00
2012-5-19,82.0,70.3,59.0,59.0,47.8,40.0,88,49,24,0.00,40.00,16,7,23,0.00
2012-5-20,85.0,71.9,59.0,53.0,46.1,-99.9,77,45,23,0.00,40.00,15,6,26,0.00
2012-5-21,89.0,75.0,61.0,61.0,54.9,48.0,83,52,32,0.00,40.00,10,3,16,0.00
2012-5-22,87.0,74.4,63.0,62.0,57.9,54.0,88,59,33,0.00,40.00,13,4,18,0.00
2012-5-23,89.0,74.1,60.0,63.0,54.0,-99.9,94,57,25,0.00,40.00,11,-5,19,0.00
2012-5-24,90.0,78.1,64.0,67.0,58.4,51.0,92,56,29,0.00,40.00,11,4,19,0.00
2012-5-25,94.0,78.7,67.0,70.0,58.8,-99.9,94,58,29,0.00,40.00,10,-11,16,0.00
2012-5-26,94.0,82.4,70.0,64.0,61.0,58.0,76,51,32,0.00,40.00,14,5,23,0.00
2012-5-27,90.0,79.6,70.0,67.0,60.0,-99.9,80,56,39,0.00,40.00,14,1,24,0.00
2012-5-28,87.0,75.5,71.0,73.0,68.8,64.0,94,81,47,0.00,40.00,14,6,27,0.00
2012-5-29,79.0,72.2,69.0,74.0,69.9,67.0,94,93,84,0.00,40.00,11,4,19,0.00
2012-5-30,90.0,77.2,67.0,70.0,63.8,51.0,94,68,29,0.00,40.00,11,6,17,0.00
2012-5-31,91.0,78.9,65.0,70.0,61.2,51.0,93,61,27,0.00,40.00,14,5,22,0.00
2012-6-1,88.0,74.9,66.0,71.0,65.3,58.0,94,75,39,0.00,40.00,14,6,22,0.00
2012-6-2,81.0,71.8,62.0,66.0,50.6,36.0,86,53,25,0.00,40.00,14,7,26,0.00
2012-6-3,87.0,72.5,58.0,58.0,46.8,-99.9,72,44,31,0.00,40.00,14,-8,22,0.00
2012-6-4,84.0,74.4,69.0,69.0,64.9,58.0,93,74,51,0.00,40.00,19,5,30,0.00
2012-6-5,72.0,67.6,63.0,66.0,60.8,-99.9,94,80,68,0.00,40.00,14,-3,30,0.00
2012-6-6,75.0,65.5,63.0,64.0,59.5,-99.9,94,84,63,0.00,40.00,10,-10,16,0.00
2012-6-7,83.0,71.1,59.0,61.0,56.8,52.0,94,65,37,0.00,40.00,8,3,13,0.00
2012-6-8,85.0,73.9,60.0,61.0,55.2,50.0,93,57,31,0.00,40.00,11,3,16,0.00
2012-6-9,86.0,74.2,62.0,63.0,51.7,-99.9,91,52,29,0.00,40.00,11,-17,20,0.00
2012-6-10,80.0,72.6,69.0,74.0,66.4,-99.9,94,85,50,0.00,40.00,17,4,29,0.00
2012-6-11,82.0,71.4,67.0,76.0,68.5,-99.9,94,92,72,0.00,40.00,14,-1,18,0.00
2012-6-12,88.0,75.5,68.0,73.0,68.5,-99.9,94,82,55,0.00,40.00,21,-2,40,0.00
2012-6-13,91.0,78.5,67.0,70.0,66.0,62.0,94,70,39,0.00,40.00,11,3,19,0.00
2012-6-14,87.0,76.7,69.0,66.0,57.9,-99.9,88,57,33,0.00,40.00,11,-3,17,0.00
2012-6-15,85.0,75.6,66.0,62.0,55.3,47.0,86,52,31,0.00,40.00,13,6,21,0.00
2012-6-16,84.0,72.3,63.0,57.0,49.2,-99.9,77,48,30,0.00,40.00,14,-11,21,0.00
2012-6-17,87.0,73.0,59.0,59.0,53.0,-99.9,88,55,33,0.00,40.00,8,2,13,0.00
2012-6-18,87.0,75.4,64.0,64.0,57.0,-99.9,91,57,35,0.00,40.00,8,-3,14,0.00
2012-6-19,89.0,77.2,63.0,67.0,58.2,52.0,93,57,31,0.00,40.00,11,3,17,0.00
2012-6-20,90.0,82.2,66.0,67.0,61.2,58.0,92,52,37,0.00,40.00,11,4,16,0.00
2012-6-21,90.0,77.2,67.0,68.0,61.5,-99.9,92,63,38,0.00,40.00,9,-7,13,0.00
2012-7-15,93.0,87.4,78.0,69.0,62.8,57.0,74,46,31,0.00,40.00,11,5,16,0.00
2012-7-16,96.0,79.0,71.0,74.0,69.0,63.0,93,74,37,0.00,40.00,16,4,25,0.00
2012-7-17,92.0,79.0,70.0,75.0,67.9,62.0,92,71,39,0.00,40.00,10,3,15,0.00
2012-7-18,95.0,80.1,72.0,73.0,69.2,60.0,94,73,39,0.00,40.00,16,5,26,0.00
2012-7-19,92.0,78.5,71.0,74.0,70.1,65.0,94,79,43,0.00,40.00,15,5,21,0.00
2012-7-20,92.0,81.6,73.0,74.0,69.6,63.0,94,71,39,0.00,40.00,16,8,24,0.00
2012-7-21,88.0,80.6,75.0,74.0,71.0,67.0,87,74,53,0.00,40.00,11,6,19,0.00
2012-7-22,99.0,82.9,73.0,75.0,68.7,-99.9,92,67,34,0.00,40.00,7,-5,17,0.00
2012-7-23,99.0,84.0,74.0,75.0,70.4,62.0,92,67,35,0.00,40.00,9,4,15,0.00
2012-7-24,99.0,87.0,76.0,75.0,68.9,63.0,93,60,33,0.00,40.00,15,7,25,0.00
2012-7-25,99.0,86.2,76.0,75.0,68.0,61.0,93,60,31,0.00,40.00,15,4,23,0.00
2012-7-26,103.0,90.0,77.0,75.0,68.0,62.0,89,53,27,0.00,40.00,15,5,21,0.00
2012-7-27,100.0,84.8,77.0,74.0,68.6,65.0,81,60,36,0.00,40.00,16,7,25,0.00
2012-7-28,99.0,83.0,73.0,73.0,67.6,-99.9,93,65,29,0.00,40.00,11,-2,17,0.00
2012-7-29,99.0,83.5,74.0,74.0,68.6,61.0,92,64,31,0.00,40.00,13,4,19,0.00
2012-7-30,94.0,79.8,71.0,73.0,69.0,63.0,94,73,39,0.00,40.00,14,4,29,0.00
2012-7-31,83.0,75.6,69.0,76.0,71.0,68.0,95,87,64,0.00,40.00,9,3,12,0.00
2012-8-1,94.0,81.5,73.0,75.0,67.7,60.0,94,68,36,0.00,40.00,11,3,17,0.00
2012-8-2,100.0,82.7,74.0,72.0,67.3,59.0,90,64,30,0.00,40.00,16,6,26,0.00
2012-8-3,97.0,80.1,69.0,72.0,66.1,60.0,94,68,33,0.00,40.00,14,5,21,0.00
2012-8-4,94.0,78.4,71.0,75.0,70.6,63.0,94,80,39,0.00,40.00,15,3,28,0.00
2012-8-5,89.0,75.6,71.0,76.0,69.2,-99.9,94,84,54,0.00,40.00,12,-11,31,0.00
2012-8-6,79.0,74.3,72.0,75.0,71.8,70.0,94,92,85,0.00,40.00,5,2,9,0.00
2012-8-7,90.0,77.3,68.0,75.0,71.3,67.0,95,84,50,0.00,40.00,13,2,29,0.00
2012-8-8,90.0,77.3,69.0,75.0,69.6,67.0,95,79,55,0.00,40.00,9,3,13,0.00
2012-8-9,91.0,79.4,72.0,76.0,70.7,65.0,94,78,42,0.00,40.00,20,4,36,0.00
2012-8-10,83.0,76.6,72.0,75.0,71.1,67.0,94,84,61,0.00,40.00,15,6,19,0.00
2012-8-11,80.0,73.0,69.0,75.0,70.1,-99.9,95,93,84,0.00,40.00,11,5,23,0.00
2012-8-12,90.0,78.4,70.0,75.0,64.1,53.0,95,67,30,0.00,40.00,11,3,17,0.00
2012-8-13,91.0,77.6,63.0,63.0,56.4,51.0,90,54,27,0.00,40.00,11,3,16,0.00
2012-8-14,79.0,70.4,67.0,65.0,61.7,59.0,82,74,61,0.00,40.00,4,2,9,0.00
2012-8-17,93.0,82.1,73.0,70.0,65.3,61.0,86,60,38,0.00,40.00,15,7,22,0.00
2012-8-18,90.0,79.4,68.0,73.0,67.0,60.0,94,70,38,0.00,40.00,9,3,14,0.00
2012-8-19,85.0,76.4,70.0,74.0,70.7,67.0,96,83,60,0.00,40.00,14,4,24,0.00
2012-8-20,84.0,75.7,71.0,72.0,70.1,68.0,95,84,62,0.00,40.00,7,3,14,0.00
2012-8-21,87.0,76.3,69.0,73.0,67.4,64.0,94,77,48,0.00,40.00,9,2,18,0.00
2012-8-22,84.0,75.2,69.0,72.0,68.8,66.0,94,82,58,0.00,40.00,8,2,11,0.00
2012-8-23,86.0,75.0,69.0,71.0,66.4,-99.9,93,77,53,0.00,40.00,9,-3,15,0.00
2012-8-24,87.0,76.7,68.0,68.0,63.7,58.0,94,68,40,0.00,40.00,11,3,19,0.00
2012-8-25,88.0,75.3,63.0,65.0,56.8,-99.9,94,61,29,0.00,40.00,9,2,14,0.00
2012-8-26,91.0,76.7,66.0,64.0,60.6,57.0,87,61,36,0.00,40.00,10,2,16,0.00
2012-8-27,90.0,77.9,70.0,72.0,67.3,63.0,94,72,48,0.00,40.00,18,4,26,0.00
2012-8-28,81.0,75.1,73.0,78.0,72.9,71.0,94,93,86,0.00,40.00,8,2,13,0.00
2012-8-29,90.0,76.7,71.0,78.0,72.1,70.0,94,87,55,0.00,40.00,9,3,16,0.00
2012-8-30,83.0,76.4,71.0,74.0,71.9,69.0,94,87,71,0.00,40.00,6,2,9,0.00
2012-8-31,93.0,81.3,71.0,76.0,70.2,65.0,94,72,45,0.00,40.00,7,2,11,0.00
2012-9-1,94.0,81.4,71.0,75.0,68.9,-99.9,94,70,39,0.00,40.00,10,-4,15,0.00
2012-9-2,95.0,80.2,72.0,75.0,70.2,65.0,93,75,40,0.00,40.00,15,4,23,0.00
2012-9-3,90.0,78.4,73.0,76.0,72.2,69.0,94,83,50,0.00,40.00,17,6,26,0.00
2012-9-4,88.0,75.7,73.0,76.0,70.7,-99.9,94,87,54,0.00,40.00,16,-2,22,0.00
2012-9-5,88.0,78.1,72.0,74.0,69.7,67.0,94,78,52,0.00,40.00,11,4,17,0.00
2012-9-6,89.0,78.0,71.0,73.0,68.1,-99.9,94,75,48,0.00,40.00,11,-2,21,0.00
2012-9-7,93.0,79.6,72.0,78.0,69.4,-99.9,94,75,45,0.00,40.00,11,-4,19,0.00
2012-9-8,90.0,76.7,71.0,73.0,68.7,-99.9,94,80,48,0.00,40.00,16,-1,28,0.00
2012-9-9,83.0,72.7,63.0,70.0,59.1,50.0,94,67,35,0.00,40.00,15,6,21,0.00
2012-9-10,85.0,70.7,61.0,58.0,51.0,-99.9,88,55,26,0.00,40.00,10,-4,18,0.00
2012-9-11,86.0,70.7,60.0,59.0,53.9,-99.9,88,59,33,0.00,40.00,7,-5,13,0.00
2012-9-12,84.0,71.2,61.0,58.0,53.9,49.0,89,58,32,0.00,40.00,14,3,19,0.00
2012-9-13,82.0,71.3,62.0,61.0,57.5,53.0,75,63,47,0.00,40.00,11,4,17,0.00
2012-9-14,88.0,74.0,67.0,64.0,55.6,-99.9,72,56,37,0.00,40.00,9,-11,14,0.00
2012-9-15,89.0,75.1,62.0,64.0,58.5,53.0,92,61,33,0.00,40.00,7,2,13,0.00
2012-9-16,87.0,74.5,64.0,67.0,59.2,-99.9,92,65,33,0.00,40.00,9,-12,12,0.00
2012-9-17,85.0,75.5,69.0,73.0,67.4,63.0,94,78,51,0.00,40.00,14,5,18,0.00
2012-9-27,90.0,79.9,66.0,71.0,59.6,52.0,87,53,31,0.00,40.00,8,2,14,0.00
2012-9-28,89.0,72.3,64.0,70.0,63.6,59.0,94,76,44,0.00,40.00,8,2,12,0.00
2012-9-29,84.0,72.1,66.0,68.0,64.2,60.0,92,78,44,0.00,40.00,8,3,11,0.00
2012-9-30,71.0,68.6,65.0,68.0,66.2,63.0,94,92,86,0.00,40.00,11,3,14,0.00
2012-10-1,85.0,74.6,68.0,75.0,68.2,65.0,94,83,52,0.00,40.00,13,5,21,0.00
2012-10-2,85.0,76.3,72.0,73.0,67.8,58.0,94,78,42,0.00,40.00,14,6,20,0.00
2012-10-3,79.0,72.3,67.0,66.0,63.4,60.0,94,75,54,0.00,40.00,7,2,10,0.00
2012-10-4,85.0,71.2,66.0,71.0,64.2,58.0,95,81,47,0.00,40.00,6,2,11,0.00
2012-10-5,85.0,69.5,62.0,67.0,60.6,53.0,94,77,40,0.00,40.00,9,2,13,0.00
2012-10-6,89.0,72.1,61.0,65.0,58.3,51.0,94,68,29,0.00,40.00,11,3,15,0.00
2012-10-7,84.0,71.1,62.0,63.0,58.7,54.0,94,68,41,0.00,40.00,11,5,18,0.00
2012-10-8,64.0,58.2,53.0,57.0,48.9,46.0,90,72,64,0.00,40.00,16,8,21,0.00
2012-10-9,70.0,56.7,49.0,51.0,46.5,42.0,94,72,40,0.00,40.00,12,6,19,0.00
2012-10-10,77.0,60.3,46.0,55.0,49.1,44.0,94,71,35,0.00,40.00,13,4,21,0.00
2012-10-11,77.0,62.0,51.0,51.0,46.2,41.0,88,60,30,0.00,40.00,9,4,15,0.00
2012-10-12,85.0,66.5,52.0,54.0,50.1,48.0,91,60,32,0.00,40.00,8,3,14,0.00
2012-10-13,77.0,65.1,56.0,53.0,50.3,47.0,74,60,42,0.00,40.00,14,5,19,0.00
2012-10-14,80.0,66.7,57.0,68.0,57.2,49.0,95,73,50,0.00,40.00,11,4,17,0.00
2012-10-15,81.0,69.8,63.0,69.0,59.2,39.0,95,73,38,0.00,40.00,14,6,23,0.00
2012-10-16,77.0,61.7,50.0,45.0,41.1,37.0,73,49,27,0.00,40.00,8,3,14,0.00
2012-10-17,77.0,61.2,51.0,49.0,43.9,35.0,86,58,27,0.00,40.00,9,3,15,0.00
2012-10-18,81.0,66.5,56.0,62.0,56.1,48.0,92,72,41,0.00,40.00,10,4,16,0.00
2012-10-19,81.0,65.9,53.0,64.0,42.6,26.0,92,52,15,0.00,40.00,15,6,24,0.00
2012-10-20,76.0,59.6,46.0,43.0,38.4,32.0,74,48,27,0.00,40.00,13,6,21,0.00
2012-10-21,77.0,59.6,48.0,46.0,41.0,36.0,89,55,26,0.00,40.00,10,3,15,0.00
2012-10-22,82.0,62.7,48.0,50.0,44.6,41.0,87,57,26,0.00,40.00,7,1,14,0.00
2012-10-23,83.0,64.4,49.0,51.0,45.4,39.0,92,55,24,0.00,40.00,7,2,11,0.00
2012-10-24,84.0,67.7,54.0,62.0,52.8,45.0,94,64,31,0.00,40.00,9,2,11,0.00
2012-10-25,85.0,71.2,61.0,62.0,56.9,52.0,91,65,34,0.00,40.00,10,4,15,0.00
2012-10-26,81.0,69.8,62.0,61.0,55.3,47.0,92,64,33,0.00,40.00,15,7,23,0.00
2012-10-27,75.0,67.3,61.0,60.0,55.6,52.0,87,68,47,0.00,40.00,19,11,26,0.00
2012-10-28,79.0,64.0,53.0,53.0,48.0,38.0,88,59,31,0.00,40.00,16,9,24,0.00
2012-10-29,63.0,52.5,44.0,39.0,32.5,27.0,67,48,31,0.00,40.00,23,12,37,0.00
2012-10-30,61.0,51.5,46.0,29.0,24.7,19.0,46,35,27,0.00,40.00,20,12,34,0.00
2012-10-31,66.0,53.0,42.0,28.0,21.0,14.0,47,30,15,0.00,40.00,21,10,31,0.00
2012-11-1,66.0,52.0,38.0,26.0,20.4,16.0,52,31,17,0.00,40.00,17,8,26,0.00
2012-11-2,78.0,59.0,42.0,42.0,31.4,17.0,56,36,25,0.00,40.00,19,7,29,0.00
2012-11-3,79.0,60.8,44.0,42.0,39.0,34.0,76,48,26,0.00,40.00,11,3,14,0.00
2012-11-4,84.0,67.0,53.0,55.0,49.6,42.0,91,56,31,0.00,40.00,17,7,33,0.00
2012-11-5,70.0,56.9,50.0,50.0,39.8,32.0,90,56,31,0.00,40.00,11,4,21,0.00
2012-11-6,55.0,48.5,40.0,40.0,35.2,30.0,75,60,45,0.00,40.00,15,6,24,0.00
2012-11-7,46.0,42.3,39.0,43.0,38.2,31.0,95,86,70,0.00,40.00,8,3,11,0.00
2012-11-8,67.0,48.9,38.0,46.0,34.0,21.0,98,65,19,0.00,40.00,10,4,17,0.00
2012-11-9,73.0,52.8,37.0,36.0,30.0,23.0,84,47,18,0.00,40.00,8,2,14,0.00
2012-11-10,75.0,56.0,38.0,41.0,32.4,27.0,86,47,19,0.00,40.00,8,2,13,0.00
2012-11-11,76.0,60.4,44.0,55.0,43.9,32.0,76,56,40,0.00,40.00,9,3,16,0.00
2012-11-12,74.0,64.2,57.0,64.0,58.1,55.0,94,81,55,0.00,40.00,16,5,23,0.00
2012-11-13,63.0,57.7,49.0,62.0,50.8,36.0,95,79,56,0.00,40.00,11,6,19,0.00
2012-11-14,54.0,50.3,48.0,37.0,31.2,-99.9,63,49,40,0.00,40.00,15,8,26,0.00
2012-11-15,50.0,44.3,40.0,43.0,40.7,32.0,96,88,56,0.00,40.00,15,6,23,0.00
2012-11-16,62.0,49.5,42.0,42.0,38.7,34.0,92,69,40,0.00,40.00,10,5,16,0.00
2012-11-17,61.0,50.0,41.0,35.0,28.1,20.0,74,47,24,0.00,40.00,16,8,24,0.00
2012-11-18,61.0,54.0,48.0,41.0,34.7,22.0,57,48,31,0.00,40.00,17,10,24,0.00
2012-11-19,60.0,53.8,51.0,46.0,43.2,38.0,73,68,54,0.00,40.00,14,8,24,0.00
2012-11-20,68.0,54.6,47.0,46.0,42.8,40.0,82,66,44,0.00,40.00,11,4,15,0.00
2012-11-21,69.0,54.2,43.0,44.0,36.5,27.0,92,57,23,0.00,40.00,11,3,18,0.00
2012-11-22,69.0,53.3,39.0,33.0,29.8,27.0,72,43,23,0.00,40.00,10,4,18,0.00
2012-11-23,75.0,55.4,37.0,44.0,36.2,32.0,88,54,25,0.00,40.00,14,5,21,0.00
2012-11-24,60.0,50.1,42.0,44.0,25.8,17.0,56,40,25,0.00,40.00,16,7,24,0.00
2012-11-25,61.0,44.3,33.0,25.0,18.9,15.0,50,37,22,0.00,40.00,8,3,14,0.00
2012-11-26,68.0,44.2,33.0,27.0,23.0,21.0,64,46,21,0.00,40.00,10,5,14,0.00
2012-11-27,55.0,50.6,46.0,50.0,38.8,21.0,96,69,34,0.00,40.00,10,4,19,0.00
2012-11-28,61.0,50.2,41.0,50.0,42.3,33.0,96,77,43,0.00,40.00,9,3,18,0.00
2012-11-29,64.0,46.6,35.0,40.0,28.9,21.0,94,57,21,0.00,40.00,8,1,13,0.00
2012-11-30,68.0,53.2,38.0,45.0,36.3,23.0,70,54,37,0.00,40.00,8,2,9,0.00
2012-12-1,72.0,59.2,51.0,50.0,46.6,45.0,81,64,43,0.00,40.00,6,2,9,0.00
2012-12-2,77.0,61.9,54.0,55.0,50.7,47.0,87,68,44,0.00,40.00,9,3,14,0.00
2012-12-3,77.0,61.8,53.0,63.0,53.1,48.0,95,76,42,0.00,40.00,7,2,11,0.00
2012-12-4,74.0,61.4,52.0,60.0,53.8,49.0,94,78,50,0.00,40.00,8,3,14,0.00
2012-12-5,74.0,64.2,57.0,56.0,52.7,49.0,89,69,46,0.00,40.00,10,4,14,0.00
2012-12-6,63.0,56.3,49.0,56.0,45.3,-99.9,84,70,51,0.00,40.00,12,7,19,0.00
2012-12-7,62.0,52.8,49.0,50.0,43.8,39.0,94,72,60,0.00,40.00,9,4,15,0.00
2012-12-8,68.0,54.1,44.0,54.0,48.4,43.0,96,83,55,0.00,40.00,8,2,11,0.00
2012-12-9,68.0,59.6,56.0,63.0,57.3,54.0,95,92,79,0.00,40.00,8,3,9,0.00
2012-12-10,73.0,64.0,56.0,60.0,56.0,52.0,95,78,49,0.00,40.00,14,4,21,0.00
2012-12-11,60.0,56.4,51.0,58.0,46.2,35.0,94,70,51,0.00,40.00,9,5,16,0.00
2012-12-12,51.0,46.6,41.0,44.0,39.3,35.0,96,77,57,0.00,40.00,14,7,21,0.00
2012-12-13,54.0,44.7,40.0,40.0,37.0,33.0,96,76,52,0.00,40.00,16,8,23,0.00
2012-12-14,64.0,47.7,35.0,36.0,33.6,30.0,91,61,32,0.00,40.00,6,2,11,0.00
2012-12-15,65.0,51.7,41.0,49.0,34.0,27.0,80,53,25,0.00,40.00,6,2,9,0.00
2012-12-16,63.0,58.3,54.0,60.0,56.0,49.0,95,92,80,0.00,40.00,11,3,19,0.00
2012-12-17,59.0,57.1,55.0,58.0,55.5,54.0,95,95,95,0.00,40.00,17,6,22,0.00
2012-12-18,62.0,55.3,45.0,57.0,39.5,23.0,95,62,23,0.00,40.00,19,8,30,0.00
2012-12-19,73.0,53.9,40.0,38.0,32.2,26.0,64,45,25,0.00,40.00,11,5,17,0.00
2012-12-20,69.0,54.5,42.0,62.0,43.8,24.0,94,68,43,0.00,40.00,29,8,40,0.00
2012-12-21,48.0,42.8,37.0,25.0,17.9,10.0,48,37,28,0.00,40.00,24,15,39,0.00
2012-12-22,60.0,43.8,31.0,13.0,9.2,6.0,39,25,13,0.00,40.00,15,8,25,0.00
2012-12-23,62.0,47.4,35.0,24.0,16.1,7.0,37,29,20,0.00,40.00,14,7,19,0.00
2012-12-24,50.0,47.4,45.0,48.0,35.8,24.0,96,68,36,0.00,40.00,15,4,23,0.00
2012-12-25,52.0,50.6,49.0,51.0,49.5,48.0,96,96,94,0.00,40.00,11,4,19,0.00
2012-12-26,63.0,52.1,39.0,59.0,42.2,25.0,95,71,45,0.00,40.00,25,14,39,0.00
2012-12-27,55.0,42.0,34.0,31.0,27.6,25.0,76,58,35,0.00,40.00,17,7,26,0.00
2012-12-28,56.0,43.4,32.0,35.0,30.6,27.0,88,63,36,0.00,40.00,8,3,11,0.00
2012-12-29,53.0,43.9,37.0,46.0,35.9,25.0,96,75,52,0.00,40.00,21,10,35,0.00
2012-12-30,55.0,38.8,29.0,26.0,19.9,14.0,74,49,21,0.00,40.00,14,4,24,0.00
2012-12-31,61.0,43.3,28.0,40.0,27.5,21.0,83,58,27,0.00,40.00,14,4,24,0.00
2013-1-1,64.0,53.3,45.0,52.0,45.2,38.0,94,75,54,0.00,40.00,8,3,11,0.00